createdAt,value
2023-02-08T00:01:14.721Z,99.90
2023-02-08T00:03:42.681Z,99.90
2023-02-08T00:06:10.776Z,99.90
2023-02-08T00:08:39.510Z,99.90
2023-02-08T00:11:08.165Z,99.90
2023-02-08T00:13:35.953Z,99.90
2023-02-08T00:16:03.910Z,99.90
2023-02-08T00:18:31.837Z,99.90
2023-02-08T00:20:59.569Z,99.90
2023-02-08T00:23:27.426Z,99.90
2023-02-08T00:25:55.110Z,99.90
2023-02-08T00:28:22.905Z,99.90
2023-02-08T00:30:50.690Z,99.90
2023-02-08T00:33:18.415Z,99.90
2023-02-08T00:35:46.446Z,99.90
2023-02-08T00:38:14.146Z,99.90
2023-02-08T00:40:42.138Z,99.90
2023-02-08T00:43:10.155Z,99.90
2023-02-08T00:45:37.933Z,99.90
2023-02-08T00:48:05.572Z,99.90
2023-02-08T00:50:33.280Z,99.90
2023-02-08T00:53:00.927Z,99.90
2023-02-08T00:55:28.971Z,99.90
2023-02-08T00:57:56.782Z,99.90
2023-02-08T01:00:24.589Z,99.90
2023-02-08T01:02:52.337Z,99.90
2023-02-08T01:05:20.016Z,99.90
2023-02-08T01:07:47.784Z,99.90
2023-02-08T01:10:15.430Z,99.90
2023-02-08T01:12:43.165Z,99.90
2023-02-08T01:15:10.884Z,99.90
2023-02-08T01:17:39.603Z,99.90
2023-02-08T01:20:07.783Z,99.90
2023-02-08T01:22:36.799Z,99.90
2023-02-08T01:25:04.643Z,99.90
2023-02-08T01:27:32.329Z,99.90
2023-02-08T01:30:00.175Z,99.90
2023-02-08T01:32:29.090Z,99.90
2023-02-08T01:34:56.799Z,99.90
2023-02-08T01:37:24.660Z,99.90
2023-02-08T01:39:52.484Z,99.90
2023-02-08T01:42:22.100Z,99.90
2023-02-08T01:45:21.253Z,99.90
2023-02-08T01:48:03.853Z,99.90
2023-02-08T01:50:40.610Z,99.90
2023-02-08T01:53:08.951Z,99.90
2023-02-08T01:55:39.952Z,99.90
2023-02-08T01:58:12.527Z,99.90
2023-02-08T02:00:40.517Z,99.90
2023-02-08T02:03:08.596Z,99.90
2023-02-08T02:05:46.546Z,99.90
2023-02-08T02:08:14.711Z,99.90
2023-02-08T02:10:43.606Z,99.90
2023-02-08T02:13:20.345Z,99.90
2023-02-08T02:15:49.628Z,99.90
2023-02-08T02:18:33.756Z,99.90
2023-02-08T02:21:01.306Z,99.90
2023-02-08T02:23:52.772Z,99.90
2023-02-08T02:26:58.020Z,99.90
2023-02-08T02:29:31.832Z,99.90
2023-02-08T02:32:39.264Z,99.90
2023-02-08T02:35:45.885Z,99.90
2023-02-08T02:38:28.573Z,99.90
2023-02-08T02:41:09.029Z,99.90
2023-02-08T02:43:42.417Z,99.90
2023-02-08T02:46:25.193Z,99.90
2023-02-08T02:49:09.302Z,99.90
2023-02-08T02:51:36.959Z,99.90
2023-02-08T02:54:30.995Z,99.90
2023-02-08T02:57:05.979Z,99.90
2023-02-08T02:59:35.828Z,99.90
2023-02-08T03:02:04.683Z,99.90
2023-02-08T03:04:35.416Z,99.90
2023-02-08T03:07:21.212Z,99.90
2023-02-08T03:10:18.332Z,99.90
2023-02-08T03:12:54.831Z,99.90
2023-02-08T03:15:25.236Z,99.90
2023-02-08T03:18:11.414Z,99.90
2023-02-08T03:20:44.605Z,99.90
2023-02-08T03:23:37.804Z,99.90
2023-02-08T03:26:19.494Z,99.90
2023-02-08T03:28:58.825Z,99.90
2023-02-08T03:31:47.979Z,99.90
2023-02-08T03:34:31.778Z,99.90
2023-02-08T03:37:04.913Z,99.90
2023-02-08T03:39:34.879Z,99.90
2023-02-08T03:42:10.420Z,99.90
2023-02-08T03:44:42.091Z,99.90
2023-02-08T03:47:22.304Z,99.90
2023-02-08T03:49:53.786Z,99.90
2023-02-08T03:52:23.599Z,99.90
2023-02-08T03:55:23.453Z,99.90
2023-02-08T03:57:56.514Z,99.90
2023-02-08T04:00:25.098Z,99.90
2023-02-08T04:03:05.828Z,99.90
2023-02-08T04:05:34.087Z,99.90
2023-02-08T04:08:01.861Z,99.90
2023-02-08T04:10:29.549Z,99.90
2023-02-08T04:12:57.190Z,99.90
2023-02-08T04:15:27.502Z,99.90
2023-02-08T04:17:55.468Z,99.90
2023-02-08T04:20:23.364Z,99.90
2023-02-08T04:22:51.122Z,99.90
2023-02-08T04:25:19.020Z,99.90
2023-02-08T04:27:46.935Z,99.90
2023-02-08T04:30:15.023Z,99.90
2023-02-08T04:32:42.749Z,99.90
2023-02-08T04:35:10.587Z,99.90
2023-02-08T04:37:38.298Z,99.90
2023-02-08T04:40:06.251Z,99.90
2023-02-08T04:42:35.016Z,99.90
2023-02-08T04:45:02.772Z,99.90
2023-02-08T04:47:30.521Z,99.90
2023-02-08T04:49:58.232Z,99.90
2023-02-08T04:52:25.941Z,99.90
2023-02-08T04:54:53.633Z,99.90
2023-02-08T04:57:21.346Z,99.90
2023-02-08T04:59:49.276Z,99.90
2023-02-08T05:02:16.993Z,99.90
2023-02-08T05:04:44.962Z,99.90
2023-02-08T05:07:12.742Z,99.90
2023-02-08T05:09:40.524Z,99.90
2023-02-08T05:12:08.397Z,99.90
2023-02-08T05:14:36.657Z,99.90
2023-02-08T05:17:04.446Z,99.90
2023-02-08T05:19:32.173Z,99.90
2023-02-08T05:21:59.939Z,99.90
2023-02-08T05:24:27.666Z,99.90
2023-02-08T05:26:55.317Z,99.90
2023-02-08T05:29:23.044Z,99.90
2023-02-08T05:31:50.842Z,99.90
2023-02-08T05:34:18.722Z,99.90
2023-02-08T05:36:46.476Z,99.90
2023-02-08T05:39:14.164Z,99.90
2023-02-08T05:41:41.972Z,99.90
2023-02-08T05:44:09.690Z,99.90
2023-02-08T05:46:38.400Z,99.90
2023-02-08T05:49:06.325Z,99.90
2023-02-08T05:51:34.152Z,99.90
2023-02-08T05:54:02.045Z,99.90
2023-02-08T05:56:29.933Z,99.90
2023-02-08T05:59:00.417Z,99.90
2023-02-08T06:01:28.184Z,99.90
2023-02-08T06:03:56.221Z,99.90
2023-02-08T06:06:23.989Z,99.90
2023-02-08T06:08:51.729Z,99.90
2023-02-08T06:11:19.748Z,99.90
2023-02-08T06:13:47.877Z,99.90
2023-02-08T06:16:18.251Z,99.90
2023-02-08T06:18:47.659Z,99.90
2023-02-08T06:21:15.729Z,99.90
2023-02-08T06:23:43.461Z,99.90
2023-02-08T06:26:11.501Z,99.90
2023-02-08T06:28:39.241Z,99.90
2023-02-08T06:31:06.933Z,99.90
2023-02-08T06:33:34.927Z,99.90
2023-02-08T06:36:02.592Z,99.90
2023-02-08T06:38:30.301Z,99.90
2023-02-08T06:40:58.031Z,99.90
2023-02-08T06:43:26.655Z,99.90
2023-02-08T06:45:54.557Z,99.90
2023-02-08T06:48:22.287Z,99.90
2023-02-08T06:50:53.564Z,99.90
2023-02-08T06:53:21.791Z,99.90
2023-02-08T06:55:50.503Z,99.90
2023-02-08T06:58:18.412Z,99.90
2023-02-08T07:00:46.572Z,99.90
2023-02-08T07:03:16.467Z,99.90
2023-02-08T07:05:58.759Z,99.90
2023-02-08T07:08:33.268Z,99.90
2023-02-08T07:11:01.025Z,99.90
2023-02-08T07:13:28.726Z,99.90
2023-02-08T07:15:56.480Z,99.90
2023-02-08T07:18:24.108Z,99.90
2023-02-08T07:20:51.943Z,99.90
2023-02-08T07:23:19.612Z,99.90
2023-02-08T07:26:00.195Z,99.90
2023-02-08T07:28:28.267Z,99.90
2023-02-08T07:30:56.372Z,99.90
2023-02-08T07:33:25.127Z,99.90
2023-02-08T07:35:52.933Z,99.90
2023-02-08T07:38:20.973Z,99.90
2023-02-08T07:40:48.988Z,99.90
2023-02-08T07:43:16.708Z,99.90
2023-02-08T07:45:54.091Z,99.90
2023-02-08T07:48:22.162Z,99.90
2023-02-08T07:50:50.080Z,99.90
2023-02-08T07:53:18.075Z,99.90
2023-02-08T07:55:46.839Z,99.90
2023-02-08T07:58:14.573Z,99.90
2023-02-08T08:00:42.390Z,99.90
2023-02-08T08:03:10.237Z,99.90
2023-02-08T08:05:41.021Z,99.90
2023-02-08T08:08:09.991Z,99.90
2023-02-08T08:10:38.455Z,99.90
2023-02-08T08:13:06.481Z,99.90
2023-02-08T08:15:34.221Z,99.90
2023-02-08T08:18:01.973Z,99.90
2023-02-08T08:20:29.839Z,99.90
2023-02-08T08:22:57.730Z,99.90
2023-02-08T08:25:25.415Z,99.90
2023-02-08T08:27:53.842Z,99.90
2023-02-08T08:30:22.115Z,99.90
2023-02-08T08:32:49.757Z,99.90
2023-02-08T08:35:17.654Z,99.90
2023-02-08T08:37:45.359Z,99.90
2023-02-08T08:40:13.400Z,99.90
2023-02-08T08:42:41.107Z,99.90
2023-02-08T08:45:09.576Z,99.90
2023-02-08T08:47:37.335Z,99.90
2023-02-08T08:50:05.242Z,99.90
2023-02-08T08:52:32.970Z,99.90
2023-02-08T08:55:00.878Z,99.90
2023-02-08T08:57:28.656Z,99.90
2023-02-08T08:59:56.301Z,99.90
2023-02-08T09:02:24.457Z,99.90
2023-02-08T09:04:52.624Z,99.90
2023-02-08T09:07:20.435Z,99.90
2023-02-08T09:09:48.255Z,99.90
2023-02-08T09:12:16.346Z,99.90
2023-02-08T09:14:45.062Z,99.90
2023-02-08T09:17:12.822Z,99.90
2023-02-08T09:19:40.678Z,99.90
2023-02-08T09:22:09.660Z,99.90
2023-02-08T09:24:37.484Z,99.90
2023-02-08T09:27:05.232Z,99.90
2023-02-08T09:29:33.907Z,99.80
2023-02-08T09:32:01.726Z,99.50
2023-02-08T09:34:29.410Z,99.50
2023-02-08T09:36:57.393Z,99.80
2023-02-08T09:39:26.468Z,99.70
2023-02-08T09:42:29.484Z,99.60
2023-02-08T09:45:05.493Z,98.70
2023-02-08T09:47:42.433Z,98.40
2023-02-08T09:50:37.451Z,98.50
2023-02-08T09:53:18.034Z,98.60
2023-02-08T09:55:58.125Z,98.70
2023-02-08T09:58:29.417Z,98.70
2023-02-08T10:00:57.818Z,98.10
2023-02-08T10:03:31.459Z,98.30
2023-02-08T10:05:59.618Z,98.20
2023-02-08T10:08:35.145Z,97.60
2023-02-08T10:11:03.509Z,97.30
2023-02-08T10:13:53.341Z,97.80
2023-02-08T10:16:24.003Z,97.50
2023-02-08T10:19:25.754Z,97.40
2023-02-08T10:22:27.167Z,97.90
2023-02-08T10:25:20.349Z,97.70
2023-02-08T10:28:07.248Z,97.70
2023-02-08T10:31:00.031Z,97.90
2023-02-08T10:33:32.684Z,97.70
2023-02-08T10:36:00.657Z,98.00
2023-02-08T10:38:45.446Z,97.40
2023-02-08T10:41:24.455Z,97.50
2023-02-08T10:44:48.490Z,97.00
2023-02-08T10:47:39.498Z,96.60
2023-02-08T10:50:32.247Z,97.90
2023-02-08T10:53:00.305Z,96.40
2023-02-08T10:55:29.751Z,97.20
2023-02-08T10:58:00.470Z,96.90
2023-02-08T11:00:34.739Z,96.80
2023-02-08T11:03:14.572Z,96.20
2023-02-08T11:05:42.846Z,96.60
2023-02-08T11:08:15.640Z,96.80
2023-02-08T11:11:09.117Z,96.30
2023-02-08T11:13:38.769Z,96.10
2023-02-08T11:16:10.928Z,95.60
2023-02-08T11:18:47.132Z,95.60
2023-02-08T11:21:25.384Z,95.10
2023-02-08T11:23:54.979Z,94.90
2023-02-08T11:26:36.773Z,94.70
2023-02-08T11:29:16.315Z,94.70
2023-02-08T11:31:59.309Z,94.50
2023-02-08T11:34:35.495Z,94.20
2023-02-08T11:37:16.082Z,93.50
2023-02-08T11:39:54.387Z,93.10
2023-02-08T11:42:44.557Z,92.60
2023-02-08T11:45:34.150Z,92.60
2023-02-08T11:48:04.583Z,92.10
2023-02-08T11:50:35.152Z,92.30
2023-02-08T11:53:07.144Z,92.60
2023-02-08T11:55:35.971Z,92.70
2023-02-08T11:58:17.327Z,92.70
2023-02-08T12:01:17.821Z,91.80
2023-02-08T12:03:48.225Z,91.40
2023-02-08T12:06:38.077Z,91.40
2023-02-08T12:10:04.621Z,91.00
2023-02-08T12:12:32.773Z,91.60
2023-02-08T12:15:08.557Z,91.10
2023-02-08T12:18:00.621Z,90.90
2023-02-08T12:20:41.322Z,91.10
2023-02-08T12:23:12.207Z,91.40
2023-02-08T12:26:04.236Z,91.20
2023-02-08T12:28:56.292Z,90.80
2023-02-08T12:31:39.189Z,90.30
2023-02-08T12:34:17.734Z,90.30
2023-02-08T12:37:22.156Z,90.10
2023-02-08T12:40:36.386Z,88.30
2023-02-08T12:43:24.854Z,89.30
2023-02-08T12:46:11.581Z,90.20
2023-02-08T12:48:48.228Z,90.10
2023-02-08T12:51:37.936Z,90.60
2023-02-08T12:54:16.672Z,90.20
2023-02-08T12:57:00.345Z,90.00
2023-02-08T12:59:49.752Z,87.40
2023-02-08T13:02:29.947Z,86.50
2023-02-08T13:05:02.037Z,87.30
2023-02-08T13:07:40.179Z,88.40
2023-02-08T13:10:29.680Z,87.50
2023-02-08T13:13:01.710Z,88.10
2023-02-08T13:15:52.146Z,89.30
2023-02-08T13:18:24.439Z,89.20
2023-02-08T13:21:06.793Z,88.20
2023-02-08T13:23:52.387Z,86.60
2023-02-08T13:26:24.783Z,85.90
2023-02-08T13:28:55.359Z,86.80
2023-02-08T13:31:41.695Z,86.80
2023-02-08T13:34:18.933Z,86.70
2023-02-08T13:36:55.793Z,85.20
2023-02-08T13:39:38.944Z,84.30
2023-02-08T13:42:09.092Z,85.90
2023-02-08T13:44:38.859Z,86.70
2023-02-08T13:47:07.941Z,87.00
2023-02-08T13:49:44.421Z,87.10
2023-02-08T13:52:47.575Z,88.40
2023-02-08T13:55:35.986Z,88.50
2023-02-08T13:58:35.936Z,89.30
2023-02-08T14:01:16.933Z,89.40
2023-02-08T14:03:44.928Z,88.50
2023-02-08T14:06:26.229Z,88.90
2023-02-08T14:09:15.665Z,90.00
2023-02-08T14:11:50.767Z,90.50
2023-02-08T14:14:29.382Z,90.60
2023-02-08T14:17:09.332Z,90.50
2023-02-08T14:19:43.551Z,90.90
2023-02-08T14:22:14.304Z,91.90
2023-02-08T14:24:49.658Z,91.70
2023-02-08T14:27:27.145Z,92.00
2023-02-08T14:29:57.857Z,91.80
2023-02-08T14:32:28.945Z,92.50
2023-02-08T14:35:09.791Z,92.90
2023-02-08T14:37:38.004Z,92.40
2023-02-08T14:40:25.183Z,92.20
2023-02-08T14:43:26.537Z,92.80
2023-02-08T14:45:55.831Z,92.80
2023-02-08T14:48:30.928Z,93.20
2023-02-08T14:51:13.458Z,93.70
2023-02-08T14:53:55.294Z,93.20
2023-02-08T14:56:28.921Z,93.20
2023-02-08T14:59:02.877Z,93.50
2023-02-08T15:01:30.447Z,93.70
2023-02-08T15:04:02.016Z,93.50
2023-02-08T15:06:49.952Z,93.60
2023-02-08T15:09:30.321Z,93.20
2023-02-08T15:12:20.816Z,93.70
2023-02-08T15:14:48.745Z,94.00
2023-02-08T15:17:43.400Z,94.10
2023-02-08T15:20:22.040Z,93.90
2023-02-08T15:22:57.745Z,94.30
2023-02-08T15:25:27.341Z,94.50
2023-02-08T15:28:00.147Z,94.40
2023-02-08T15:30:35.571Z,94.60
2023-02-08T15:33:09.371Z,94.60
2023-02-08T15:35:37.361Z,94.60
2023-02-08T15:38:10.838Z,94.10
2023-02-08T15:40:38.510Z,94.20
2023-02-08T15:43:09.126Z,93.90
2023-02-08T15:45:37.095Z,94.10
2023-02-08T15:48:07.001Z,94.10
2023-02-08T15:50:35.996Z,94.50
2023-02-08T15:53:07.285Z,95.00
2023-02-08T15:55:44.513Z,94.70
2023-02-08T15:58:33.199Z,94.80
2023-02-08T16:01:04.084Z,94.60
2023-02-08T16:03:33.195Z,94.40
2023-02-08T16:06:07.187Z,94.40
2023-02-08T16:08:39.246Z,94.60
2023-02-08T16:11:26.564Z,94.60
2023-02-08T16:13:57.396Z,95.10
2023-02-08T16:16:43.429Z,95.50
2023-02-08T16:19:33.648Z,95.60
2023-02-08T16:22:32.990Z,95.50
2023-02-08T16:25:44.793Z,95.90
2023-02-08T16:28:42.084Z,96.10
2023-02-08T16:31:09.995Z,95.70
2023-02-08T16:33:39.705Z,95.70
2023-02-08T16:36:07.557Z,96.10
2023-02-08T16:38:35.848Z,96.50
2023-02-08T16:41:12.668Z,96.80
2023-02-08T16:43:44.179Z,96.90
2023-02-08T16:46:11.926Z,97.30
2023-02-08T16:48:45.238Z,97.20
2023-02-08T16:51:24.595Z,97.40
2023-02-08T16:53:55.826Z,97.50
2023-02-08T16:56:24.465Z,97.40
2023-02-08T16:58:52.215Z,97.60
2023-02-08T17:01:24.311Z,97.90
2023-02-08T17:03:53.253Z,98.10
2023-02-08T17:06:35.679Z,98.40
2023-02-08T17:09:06.206Z,98.60
2023-02-08T17:11:33.946Z,98.30
2023-02-08T17:14:01.953Z,97.30
2023-02-08T17:16:31.227Z,96.90
2023-02-08T17:19:00.227Z,95.90
2023-02-08T17:21:29.381Z,95.50
2023-02-08T17:23:57.633Z,95.40
2023-02-08T17:26:34.541Z,95.60
2023-02-08T17:29:02.532Z,95.70
2023-02-08T17:31:31.136Z,95.90
2023-02-08T17:34:04.499Z,96.00
2023-02-08T17:36:34.418Z,96.00
2023-02-08T17:39:02.575Z,96.40
2023-02-08T17:41:30.236Z,96.50
2023-02-08T17:43:58.212Z,96.60
2023-02-08T17:46:28.236Z,96.80
2023-02-08T17:48:56.082Z,97.00
2023-02-08T17:51:25.057Z,97.00
2023-02-08T17:53:52.919Z,97.20
2023-02-08T17:56:24.974Z,97.20
2023-02-08T17:58:54.571Z,97.30
2023-02-08T18:01:25.776Z,97.40
2023-02-08T18:03:55.228Z,97.50
2023-02-08T18:06:25.156Z,97.50
2023-02-08T18:08:53.874Z,97.50
2023-02-08T18:11:23.541Z,97.60
2023-02-08T18:13:53.390Z,97.60
2023-02-08T18:16:26.740Z,97.50
2023-02-08T18:18:59.465Z,97.60
2023-02-08T18:21:27.352Z,97.60
2023-02-08T18:23:55.724Z,97.70
2023-02-08T18:26:25.073Z,98.00
2023-02-08T18:28:53.055Z,98.20
2023-02-08T18:31:21.962Z,97.90
2023-02-08T18:33:50.678Z,97.90
2023-02-08T18:36:20.672Z,97.90
2023-02-08T18:38:50.508Z,98.00
2023-02-08T18:41:22.115Z,97.90
2023-02-08T18:43:50.695Z,97.90
2023-02-08T18:46:21.254Z,97.80
2023-02-08T18:48:50.185Z,97.80
2023-02-08T18:51:20.275Z,97.60
2023-02-08T18:53:51.154Z,97.60
2023-02-08T18:56:23.050Z,97.40
2023-02-08T18:58:54.912Z,97.10
2023-02-08T19:01:24.260Z,97.00
2023-02-08T19:03:52.941Z,96.90
2023-02-08T19:06:24.866Z,96.70
2023-02-08T19:08:56.360Z,96.60
2023-02-08T19:11:26.693Z,96.60
2023-02-08T19:13:57.904Z,96.70
2023-02-08T19:16:27.775Z,96.80
2023-02-08T19:19:01.173Z,96.90
2023-02-08T19:21:30.527Z,96.80
2023-02-08T19:24:00.654Z,96.70
2023-02-08T19:26:32.827Z,96.60
2023-02-08T19:29:03.537Z,96.60
2023-02-08T19:31:31.403Z,96.80
2023-02-08T19:34:01.007Z,96.90
2023-02-08T19:36:30.308Z,96.50
2023-02-08T19:38:58.790Z,96.50
2023-02-08T19:41:33.375Z,96.40
2023-02-08T19:44:04.868Z,96.40
2023-02-08T19:46:34.731Z,96.40
2023-02-08T19:49:02.690Z,96.40
2023-02-08T19:51:32.405Z,96.30
2023-02-08T19:54:01.105Z,96.30
2023-02-08T19:56:34.059Z,96.40
2023-02-08T19:59:05.877Z,96.40
2023-02-08T20:01:35.650Z,96.50
2023-02-08T20:04:04.189Z,95.90
2023-02-08T20:06:38.893Z,95.90
2023-02-08T20:09:08.180Z,95.80
2023-02-08T20:11:54.733Z,95.70
2023-02-08T20:14:24.566Z,95.90
2023-02-08T20:16:52.499Z,96.00
2023-02-08T20:19:20.306Z,96.20
2023-02-08T20:21:48.117Z,96.30
2023-02-08T20:24:16.048Z,96.10
2023-02-08T20:26:45.993Z,96.20
2023-02-08T20:29:14.776Z,96.40
2023-02-08T20:31:45.346Z,96.40
2023-02-08T20:34:15.515Z,96.60
2023-02-08T20:37:04.485Z,96.60
2023-02-08T20:39:35.786Z,96.60
2023-02-08T20:42:04.010Z,96.40
2023-02-08T20:44:31.944Z,96.50
2023-02-08T20:46:59.678Z,96.30
2023-02-08T20:49:27.857Z,96.30
2023-02-08T20:51:56.104Z,96.60
2023-02-08T20:54:24.810Z,96.40
2023-02-08T20:56:53.846Z,96.50
2023-02-08T20:59:21.744Z,96.70
2023-02-08T21:01:50.187Z,96.50
2023-02-08T21:04:18.178Z,96.50
2023-02-08T21:06:46.450Z,96.60
2023-02-08T21:09:16.107Z,96.70
2023-02-08T21:11:45.178Z,96.60
2023-02-08T21:14:18.921Z,96.70
2023-02-08T21:16:56.529Z,96.90
2023-02-08T21:19:28.582Z,96.90
2023-02-08T21:21:59.508Z,96.90
2023-02-08T21:24:28.291Z,96.80
2023-02-08T21:26:57.104Z,96.80
2023-02-08T21:29:25.631Z,96.70
2023-02-08T21:31:54.760Z,96.90
2023-02-08T21:34:23.159Z,96.90
2023-02-08T21:36:51.204Z,97.00
2023-02-08T21:39:18.949Z,97.00
2023-02-08T21:41:46.852Z,97.20
2023-02-08T21:44:14.568Z,97.30
2023-02-08T21:46:42.339Z,97.60
2023-02-08T21:49:29.289Z,97.60
2023-02-08T21:52:15.676Z,97.70
2023-02-08T21:54:44.784Z,97.80
2023-02-08T21:57:17.911Z,97.70
2023-02-08T21:59:47.214Z,97.40
2023-02-08T22:02:25.867Z,97.50
2023-02-08T22:04:55.396Z,97.60
2023-02-08T22:07:24.135Z,97.50
2023-02-08T22:09:52.120Z,97.50
2023-02-08T22:12:22.312Z,97.90
2023-02-08T22:14:50.590Z,98.00
2023-02-08T22:17:18.497Z,97.90
2023-02-08T22:19:46.262Z,98.00
2023-02-08T22:22:14.043Z,98.30
2023-02-08T22:24:41.804Z,98.40
2023-02-08T22:27:09.973Z,98.50
2023-02-08T22:29:37.873Z,98.60
2023-02-08T22:32:06.136Z,98.60
2023-02-08T22:34:33.924Z,99.10
2023-02-08T22:37:04.303Z,98.80
2023-02-08T22:39:33.140Z,98.50
2023-02-08T22:42:00.837Z,98.60
2023-02-08T22:44:28.470Z,98.40
2023-02-08T22:46:57.592Z,98.00
2023-02-08T22:49:25.315Z,97.40
2023-02-08T22:51:53.110Z,97.50
2023-02-08T22:54:21.106Z,97.80
2023-02-08T22:56:48.837Z,98.10
2023-02-08T22:59:16.611Z,97.60
2023-02-08T23:01:45.079Z,97.60
2023-02-08T23:04:12.903Z,97.80
2023-02-08T23:06:40.567Z,97.70
2023-02-08T23:09:08.331Z,97.60
2023-02-08T23:11:36.106Z,97.60
2023-02-08T23:14:03.820Z,97.70
2023-02-08T23:16:32.752Z,97.50
2023-02-08T23:19:00.710Z,97.40
2023-02-08T23:21:28.448Z,97.20
2023-02-08T23:23:56.260Z,97.00
2023-02-08T23:26:24.147Z,97.10
2023-02-08T23:28:54.093Z,97.10
2023-02-08T23:31:22.537Z,97.20
2023-02-08T23:33:50.351Z,97.10
2023-02-08T23:36:23.377Z,96.90
2023-02-08T23:38:51.494Z,96.90
2023-02-08T23:41:21.970Z,97.00
2023-02-08T23:43:52.105Z,96.80
2023-02-08T23:46:23.247Z,96.90
2023-02-08T23:48:51.716Z,96.90
2023-02-08T23:51:21.787Z,96.80
2023-02-08T23:53:50.553Z,96.60
2023-02-08T23:56:24.533Z,96.60
2023-02-08T23:58:55.213Z,96.60
